Time;durP1;ratioP1;P1;durP2;ratioP2;P2;SDS_P1;SDS_P2;PMS_P1;PMS_P2;Temp;Humidity;BMP_temperature;BMP_pressure;BME280_temperature;BME280_humidity;BME280_pressure;Samples;Min_cycle;Max_cycle;Signal;HPM_P1;HPM_P2
2022/05/23 00:00:27;;;;;;;1.95;1.33;;;;;;;;;;5086310;28;20205;-85
2022/05/23 00:02:56;;;;;;;1.00;1.00;;;;;;;;;;5085353;28;20213;-84
2022/05/23 00:05:23;;;;;;;0.90;0.88;;;;;;;;;;5086005;28;20224;-85
2022/05/23 00:07:52;;;;;;;1.13;1.02;;;;;;;;;;5086069;28;20212;-85
2022/05/23 00:10:21;;;;;;;1.10;1.10;;;;;;;;;;5086450;28;20204;-84
2022/05/23 00:12:48;;;;;;;1.30;1.20;;;;;;;;;;5086698;28;20254;-84
2022/05/23 00:15:16;;;;;;;3.08;1.90;;;;;;;;;;5086876;28;20220;-84
2022/05/23 00:17:44;;;;;;;1.40;1.30;;;;;;;;;;5087005;28;20650;-84
2022/05/23 00:20:16;;;;;;;1.40;1.30;;;;;;;;;;5087218;28;20669;-85
2022/05/23 00:22:43;;;;;;;1.65;1.20;;;;;;;;;;5086445;28;20200;-83
2022/05/23 00:25:12;;;;;;;2.10;1.20;;;;;;;;;;5085954;28;20609;-85
2022/05/23 00:27:42;;;;;;;1.20;1.10;;;;;;;;;;5085819;28;20205;-83
2022/05/23 00:30:12;;;;;;;1.35;1.20;;;;;;;;;;5087007;28;20181;-85
2022/05/23 00:35:27;;;;;;;1.40;1.30;;;;;;;;;;5104156;28;20210;-85
2022/05/23 00:37:56;;;;;;;1.13;1.02;;;;;;;;;;5107159;28;20214;-83
2022/05/23 00:40:37;;;;;;;2.80;1.40;;;;;;;;;;5105515;28;20211;-84
2022/05/23 00:43:13;;;;;;;2.50;1.40;;;;;;;;;;5106133;28;20207;-84
2022/05/23 00:45:42;;;;;;;1.20;1.10;;;;;;;;;;5106466;28;20227;-84
2022/05/23 00:48:10;;;;;;;0.90;0.90;;;;;;;;;;5107134;28;20544;-84
2022/05/23 00:50:41;;;;;;;3.08;1.80;;;;;;;;;;5107084;28;20640;-84
2022/05/23 00:53:10;;;;;;;1.98;1.50;;;;;;;;;;5105916;28;20200;-84
2022/05/23 00:55:40;;;;;;;1.33;1.23;;;;;;;;;;5107873;28;20204;-85
2022/05/23 00:58:13;;;;;;;1.38;1.27;;;;;;;;;;5106764;28;20211;-84
2022/05/23 01:00:41;;;;;;;1.88;1.40;;;;;;;;;;5104999;28;20203;-83
2022/05/23 01:03:14;;;;;;;1.25;1.17;;;;;;;;;;5105873;28;20607;-83
2022/05/23 01:05:43;;;;;;;1.50;1.33;;;;;;;;;;5126890;28;20234;-84
2022/05/23 01:08:11;;;;;;;1.20;1.10;;;;;;;;;;5126339;28;20211;-83
2022/05/23 01:10:40;;;;;;;1.85;1.10;;;;;;;;;;5124995;28;20399;-83
2022/05/23 01:13:08;;;;;;;1.17;1.10;;;;;;;;;;5124226;28;20660;-83
2022/05/23 01:15:36;;;;;;;1.42;1.33;;;;;;;;;;5124312;28;20642;-83
2022/05/23 01:18:04;;;;;;;1.60;1.50;;;;;;;;;;5123533;28;20202;-84
2022/05/23 01:20:32;;;;;;;1.30;1.20;;;;;;;;;;5123558;28;20229;-84
2022/05/23 01:23:13;;;;;;;1.58;1.48;;;;;;;;;;5123885;28;20200;-83
2022/05/23 01:25:44;;;;;;;1.55;1.45;;;;;;;;;;5123732;28;20222;-84
2022/05/23 01:28:12;;;;;;;1.90;1.40;;;;;;;;;;5124540;28;20203;-84
2022/05/23 01:30:41;;;;;;;1.40;1.30;;;;;;;;;;5124090;28;20191;-84
2022/05/23 01:33:10;;;;;;;1.58;1.48;;;;;;;;;;5122936;28;20200;-83
2022/05/23 01:35:38;;;;;;;1.40;1.30;;;;;;;;;;5104290;28;20200;-83
2022/05/23 01:38:06;;;;;;;1.45;1.38;;;;;;;;;;5102256;28;20196;-84
2022/05/23 01:40:34;;;;;;;1.40;1.27;;;;;;;;;;5102271;28;20196;-84
2022/05/23 01:43:03;;;;;;;1.40;1.30;;;;;;;;;;5102385;28;20196;-85
2022/05/23 01:45:38;;;;;;;2.15;1.38;;;;;;;;;;5103491;28;20224;-84
2022/05/23 01:48:07;;;;;;;1.00;1.00;;;;;;;;;;5102306;28;20676;-84
2022/05/23 01:50:34;;;;;;;1.23;1.13;;;;;;;;;;5102364;28;20549;-84
2022/05/23 01:53:02;;;;;;;1.08;1.00;;;;;;;;;;5100979;28;20574;-84
2022/05/23 01:55:29;;;;;;;1.50;1.40;;;;;;;;;;5103664;28;20211;-83
2022/05/23 01:57:57;;;;;;;1.35;1.25;;;;;;;;;;5103811;28;20200;-84
2022/05/23 02:03:11;;;;;;;1.20;1.10;;;;;;;;;;5103733;28;20203;-84
2022/05/23 02:05:39;;;;;;;1.42;1.33;;;;;;;;;;5103207;28;20314;-84
2022/05/23 02:08:07;;;;;;;1.38;1.27;;;;;;;;;;5102706;28;20207;-83
2022/05/23 02:10:34;;;;;;;1.55;1.27;;;;;;;;;;5103485;28;20614;-83
2022/05/23 02:13:02;;;;;;;1.75;1.65;;;;;;;;;;5102851;28;20204;-83
2022/05/23 02:15:32;;;;;;;1.35;1.25;;;;;;;;;;5103967;28;20200;-84
2022/05/23 02:18:00;;;;;;;1.00;1.00;;;;;;;;;;5104874;28;20208;-83
2022/05/23 02:20:28;;;;;;;1.42;1.15;;;;;;;;;;5103231;28;20620;-83
2022/05/23 02:22:56;;;;;;;1.45;1.35;;;;;;;;;;5103535;28;20200;-84
2022/05/23 02:25:23;;;;;;;2.22;1.60;;;;;;;;;;5052119;22;20234;-85
2022/05/23 02:27:51;;;;;;;1.45;1.35;;;;;;;;;;5049887;28;20689;-85
2022/05/23 02:30:18;;;;;;;1.27;1.20;;;;;;;;;;5058257;28;20551;-85
2022/05/23 02:32:48;;;;;;;1.63;1.40;;;;;;;;;;5056904;28;20884;-84
2022/05/23 02:35:18;;;;;;;1.45;1.17;;;;;;;;;;5058721;28;20237;-85
2022/05/23 02:37:46;;;;;;;1.35;1.25;;;;;;;;;;5058914;28;20198;-84
2022/05/23 02:40:15;;;;;;;1.55;1.20;;;;;;;;;;5059110;28;20205;-84
2022/05/23 02:42:43;;;;;;;1.20;1.10;;;;;;;;;;5057754;28;20202;-85
2022/05/23 02:45:11;;;;;;;2.78;1.65;;;;;;;;;;5057951;28;20275;-85
2022/05/23 02:47:39;;;;;;;1.33;1.23;;;;;;;;;;5058240;28;20663;-84
2022/05/23 02:50:11;;;;;;;1.63;1.20;;;;;;;;;;5057824;28;20205;-84
2022/05/23 02:52:39;;;;;;;1.42;1.33;;;;;;;;;;5057042;28;20574;-84
2022/05/23 02:55:09;;;;;;;1.63;1.52;;;;;;;;;;5053713;28;20309;-85
2022/05/23 02:57:37;;;;;;;1.40;1.30;;;;;;;;;;5037026;28;20246;-84
2022/05/23 03:00:06;;;;;;;2.80;1.30;;;;;;;;;;5036658;28;20194;-85
2022/05/23 03:05:20;;;;;;;0.95;0.95;;;;;;;;;;5036802;28;20268;-85
2022/05/23 03:07:48;;;;;;;1.30;1.20;;;;;;;;;;5037550;28;20293;-84
2022/05/23 03:10:15;;;;;;;1.42;1.17;;;;;;;;;;5036881;28;20214;-84
2022/05/23 03:12:42;;;;;;;4.38;1.70;;;;;;;;;;5035202;28;20260;-84
2022/05/23 03:15:11;;;;;;;0.98;0.93;;;;;;;;;;5037116;28;20230;-84
2022/05/23 03:17:38;;;;;;;0.80;0.80;;;;;;;;;;5036585;28;20209;-85
2022/05/23 03:20:07;;;;;;;0.90;0.90;;;;;;;;;;5036855;28;20208;-83
2022/05/23 03:28:07;;;;;;;0.90;0.90;;;;;;;;;;5035355;28;20193;-85
2022/05/23 03:30:35;;;;;;;1.40;1.30;;;;;;;;;;5036004;28;20588;-84
2022/05/23 03:33:02;;;;;;;1.98;1.40;;;;;;;;;;5035085;28;20210;-84
2022/05/23 03:35:32;;;;;;;1.90;1.58;;;;;;;;;;5036226;28;20229;-83
2022/05/23 03:38:01;;;;;;;1.52;1.42;;;;;;;;;;5035978;28;20198;-83
2022/05/23 03:40:28;;;;;;;1.45;1.35;;;;;;;;;;5035791;28;20213;-84
2022/05/23 03:42:56;;;;;;;2.42;1.50;;;;;;;;;;5034859;28;20659;-85
2022/05/23 03:45:24;;;;;;;1.50;1.40;;;;;;;;;;5035624;28;20304;-84
2022/05/23 03:47:52;;;;;;;1.38;1.27;;;;;;;;;;5036168;28;20210;-85
2022/05/23 03:50:20;;;;;;;2.55;1.92;;;;;;;;;;5036777;28;20218;-85
2022/05/23 03:52:48;;;;;;;1.95;1.85;;;;;;;;;;5036678;28;20210;-85
2022/05/23 03:55:17;;;;;;;1.98;1.63;;;;;;;;;;5036494;28;20602;-85
2022/05/23 03:57:45;;;;;;;2.53;1.65;;;;;;;;;;5036012;28;20580;-84
2022/05/23 04:00:14;;;;;;;1.80;1.60;;;;;;;;;;5035486;28;20202;-84
2022/05/23 04:02:41;;;;;;;2.30;1.52;;;;;;;;;;5035076;28;20210;-84
2022/05/23 04:05:12;;;;;;;1.33;1.23;;;;;;;;;;5035581;28;20218;-84
2022/05/23 04:07:40;;;;;;;1.48;1.38;;;;;;;;;;5035177;28;20202;-83
2022/05/23 04:10:11;;;;;;;1.45;1.35;;;;;;;;;;5035268;28;20202;-84
2022/05/23 04:12:39;;;;;;;1.98;1.58;;;;;;;;;;5034724;28;20198;-85
2022/05/23 04:15:08;;;;;;;1.42;1.25;;;;;;;;;;5035855;28;20760;-85
2022/05/23 04:17:36;;;;;;;1.40;1.02;;;;;;;;;;5037455;28;20203;-87
2022/05/23 04:20:08;;;;;;;1.38;1.27;;;;;;;;;;5037251;28;20205;-85
2022/05/23 04:22:36;;;;;;;1.20;1.20;;;;;;;;;;5036724;28;20187;-84
2022/05/23 04:25:05;;;;;;;1.70;1.60;;;;;;;;;;5039156;28;20244;-85
2022/05/23 04:27:33;;;;;;;1.48;1.38;;;;;;;;;;5038531;28;20702;-84
2022/05/23 04:30:01;;;;;;;1.35;1.30;;;;;;;;;;5035864;28;20800;-84
2022/05/23 04:35:14;;;;;;;1.92;1.38;;;;;;;;;;5037473;28;20268;-84
2022/05/23 04:37:42;;;;;;;1.05;0.95;;;;;;;;;;5037371;28;20194;-84
2022/05/23 04:40:11;;;;;;;1.00;1.00;;;;;;;;;;5036593;28;20206;-85
2022/05/23 04:42:38;;;;;;;1.33;1.20;;;;;;;;;;5038279;28;20233;-85
2022/05/23 04:45:09;;;;;;;1.40;1.30;;;;;;;;;;5069570;22;20707;-84
2022/05/23 04:50:21;;;;;;;1.20;1.10;;;;;;;;;;5058578;28;20204;-83
2022/05/23 04:52:48;;;;;;;0.90;0.82;;;;;;;;;;5058702;28;20206;-83
2022/05/23 04:55:16;;;;;;;0.73;0.73;;;;;;;;;;5057596;28;20226;-84
2022/05/23 04:57:44;;;;;;;0.90;0.90;;;;;;;;;;5057273;28;20681;-84
2022/05/23 05:00:18;;;;;;;0.80;0.80;;;;;;;;;;5057663;28;20255;-83
2022/05/23 05:02:46;;;;;;;1.00;1.00;;;;;;;;;;5057631;28;20254;-83
2022/05/23 05:05:14;;;;;;;0.95;0.88;;;;;;;;;;5056946;28;20225;-83
2022/05/23 05:07:41;;;;;;;0.82;0.82;;;;;;;;;;5057626;28;20739;-83
2022/05/23 05:10:10;;;;;;;1.48;1.38;;;;;;;;;;5058303;28;20204;-83
2022/05/23 05:12:37;;;;;;;1.10;1.10;;;;;;;;;;5057753;28;20676;-83
2022/05/23 05:15:05;;;;;;;1.33;1.23;;;;;;;;;;5056803;28;20244;-84
2022/05/23 05:17:34;;;;;;;1.50;1.40;;;;;;;;;;5055798;28;20209;-84
2022/05/23 05:20:01;;;;;;;3.05;1.17;;;;;;;;;;5056535;28;20205;-85
2022/05/23 05:22:28;;;;;;;2.10;1.33;;;;;;;;;;5056267;28;20566;-85
2022/05/23 05:24:56;;;;;;;1.20;1.13;;;;;;;;;;5058720;28;20736;-83
2022/05/23 05:27:23;;;;;;;2.75;1.92;;;;;;;;;;5056589;28;20217;-83
2022/05/23 05:29:50;;;;;;;1.65;1.40;;;;;;;;;;5057002;28;20716;-83
2022/05/23 05:32:21;;;;;;;2.00;1.55;;;;;;;;;;5056100;28;20201;-83
2022/05/23 05:34:54;;;;;;;1.85;1.73;;;;;;;;;;5055791;28;20229;-84
2022/05/23 05:37:25;;;;;;;1.50;1.40;;;;;;;;;;5055765;28;20247;-84
2022/05/23 05:39:54;;;;;;;1.33;1.30;;;;;;;;;;5055646;28;20192;-83
2022/05/23 05:42:27;;;;;;;1.20;1.15;;;;;;;;;;5052275;28;20199;-83
2022/05/23 05:44:59;;;;;;;1.60;1.50;;;;;;;;;;5056287;28;20686;-83
2022/05/23 05:47:27;;;;;;;1.50;1.40;;;;;;;;;;5055829;28;20255;-84
2022/05/23 05:50:00;;;;;;;1.55;1.40;;;;;;;;;;5056040;28;20232;-84
2022/05/23 05:52:29;;;;;;;1.45;1.10;;;;;;;;;;5055834;28;20190;-84
2022/05/23 05:54:57;;;;;;;0.82;0.82;;;;;;;;;;5054797;28;20232;-86
2022/05/23 05:57:25;;;;;;;1.15;1.10;;;;;;;;;;5055218;28;20205;-86
2022/05/23 05:59:52;;;;;;;1.00;1.00;;;;;;;;;;5055812;28;20232;-85
2022/05/23 06:02:20;;;;;;;0.90;0.80;;;;;;;;;;5054719;28;20230;-84
2022/05/23 06:04:47;;;;;;;2.25;2.05;;;;;;;;;;5054939;28;20225;-85
2022/05/23 06:12:52;;;;;;;1.90;1.80;;;;;;;;;;5054566;28;20255;-84
2022/05/23 06:15:20;;;;;;;2.15;1.50;;;;;;;;;;5054790;28;20276;-85
2022/05/23 06:17:47;;;;;;;2.10;1.90;;;;;;;;;;5054617;28;20571;-85
2022/05/23 06:20:16;;;;;;;2.25;1.92;;;;;;;;;;5054714;28;20210;-85
2022/05/23 06:22:45;;;;;;;2.85;2.60;;;;;;;;;;5053941;28;20208;-85
2022/05/23 06:25:13;;;;;;;2.58;2.38;;;;;;;;;;5054100;28;20652;-85
2022/05/23 06:27:41;;;;;;;1.48;1.38;;;;;;;;;;5054619;28;20233;-85
2022/05/23 06:30:10;;;;;;;1.98;1.80;;;;;;;;;;5054309;28;20284;-85
2022/05/23 06:32:38;;;;;;;3.05;2.13;;;;;;;;;;5054212;28;20208;-86
2022/05/23 06:35:07;;;;;;;2.38;2.17;;;;;;;;;;5054117;28;20221;-84
2022/05/23 06:37:35;;;;;;;1.73;1.63;;;;;;;;;;5054320;28;20639;-86
2022/05/23 06:40:07;;;;;;;2.50;2.30;;;;;;;;;;5054086;28;20595;-85
2022/05/23 06:42:40;;;;;;;2.20;1.98;;;;;;;;;;5054008;28;20209;-85
2022/05/23 06:45:10;;;;;;;1.92;1.83;;;;;;;;;;5054830;28;20230;-84
2022/05/23 06:47:37;;;;;;;2.45;2.22;;;;;;;;;;5054469;28;20691;-86
2022/05/23 06:50:06;;;;;;;2.65;2.45;;;;;;;;;;5053799;28;20213;-83
2022/05/23 06:52:34;;;;;;;3.88;2.90;;;;;;;;;;5053564;28;20283;-85
2022/05/23 06:55:02;;;;;;;3.78;2.50;;;;;;;;;;5054031;28;20253;-84
2022/05/23 06:57:30;;;;;;;5.13;3.47;;;;;;;;;;5054334;28;20264;-85
2022/05/23 06:59:58;;;;;;;3.65;3.20;;;;;;;;;;5054093;28;20216;-85
2022/05/23 07:02:26;;;;;;;3.65;3.35;;;;;;;;;;5054065;28;20201;-84
2022/05/23 07:13:10;;;;;;;3.83;3.50;;;;;;;;;;5044193;28;20224;-86
2022/05/23 07:15:38;;;;;;;4.93;4.13;;;;;;;;;;5034937;28;20714;-87
2022/05/23 07:18:08;;;;;;;3.08;2.85;;;;;;;;;;5054833;28;20221;-84
2022/05/23 07:20:35;;;;;;;4.60;3.10;;;;;;;;;;5055251;28;20267;-86
2022/05/23 07:23:02;;;;;;;2.67;2.47;;;;;;;;;;5054358;28;20201;-84
2022/05/23 07:25:30;;;;;;;3.97;2.70;;;;;;;;;;5054778;28;20222;-87
2022/05/23 07:27:57;;;;;;;3.13;2.83;;;;;;;;;;5055126;28;20224;-87
2022/05/23 07:30:26;;;;;;;2.88;2.60;;;;;;;;;;5054422;28;20666;-85
2022/05/23 07:32:54;;;;;;;2.15;1.90;;;;;;;;;;5054475;28;20205;-86
2022/05/23 07:35:21;;;;;;;2.42;2.22;;;;;;;;;;5055728;28;20232;-84
2022/05/23 07:37:48;;;;;;;2.30;2.08;;;;;;;;;;5055117;28;20642;-85
2022/05/23 07:40:16;;;;;;;2.97;2.40;;;;;;;;;;5054856;28;20212;-85
2022/05/23 07:42:44;;;;;;;1.80;1.70;;;;;;;;;;5054466;28;20213;-84
2022/05/23 07:45:13;;;;;;;3.17;2.03;;;;;;;;;;5053188;28;20950;-85
2022/05/23 07:47:42;;;;;;;3.88;2.92;;;;;;;;;;5052787;28;20209;-86
2022/05/23 07:50:12;;;;;;;6.88;2.40;;;;;;;;;;5052353;28;20327;-85
2022/05/23 08:00:29;;;;;;;1.83;1.70;;;;;;;;;;5051578;28;20208;-85
2022/05/23 08:00:57;;;;;;;3.42;1.70;;;;;;;;;;5052962;28;20303;-86
2022/05/23 08:03:26;;;;;;;1.80;1.50;;;;;;;;;;5052442;28;20259;-86
2022/05/23 08:05:54;;;;;;;5.05;3.00;;;;;;;;;;5052907;28;20697;-86
2022/05/23 08:08:21;;;;;;;1.80;1.70;;;;;;;;;;5051933;28;20230;-86
2022/05/23 08:10:49;;;;;;;2.50;2.20;;;;;;;;;;5052787;28;20217;-86
2022/05/23 08:13:17;;;;;;;2.20;2.10;;;;;;;;;;5052367;28;20680;-86
2022/05/23 08:15:44;;;;;;;2.13;1.92;;;;;;;;;;5052446;28;20204;-86
2022/05/23 08:18:13;;;;;;;2.38;2.17;;;;;;;;;;5054643;28;20206;-86
2022/05/23 08:20:42;;;;;;;2.67;2.42;;;;;;;;;;5057080;28;20220;-87
2022/05/23 08:23:09;;;;;;;1.83;1.73;;;;;;;;;;5057319;28;20214;-86
2022/05/23 08:25:37;;;;;;;1.70;1.60;;;;;;;;;;5057119;28;20221;-84
2022/05/23 08:28:05;;;;;;;2.00;1.58;;;;;;;;;;5056921;28;20205;-83
2022/05/23 08:30:32;;;;;;;1.98;1.83;;;;;;;;;;5056750;28;20210;-83
2022/05/23 08:32:59;;;;;;;3.08;2.88;;;;;;;;;;5056115;28;20214;-83
2022/05/23 08:35:27;;;;;;;2.33;2.17;;;;;;;;;;5056386;28;20237;-84
2022/05/23 08:37:58;;;;;;;1.40;1.30;;;;;;;;;;5056334;28;20205;-84
2022/05/23 08:40:34;;;;;;;1.90;1.80;;;;;;;;;;5054959;28;20206;-84
2022/05/23 08:43:06;;;;;;;2.17;1.98;;;;;;;;;;5056248;28;20263;-84
2022/05/23 08:45:39;;;;;;;2.42;2.15;;;;;;;;;;5056590;28;20709;-84
2022/05/23 08:48:14;;;;;;;1.60;1.50;;;;;;;;;;5056802;28;20283;-84
2022/05/23 08:50:59;;;;;;;2.17;1.98;;;;;;;;;;5057391;28;20236;-84
2022/05/23 08:53:31;;;;;;;1.83;1.70;;;;;;;;;;5051228;28;20646;-83
2022/05/23 08:56:02;;;;;;;2.35;2.15;;;;;;;;;;5056152;28;20220;-84
2022/05/23 08:58:34;;;;;;;1.55;1.45;;;;;;;;;;5056832;28;20201;-83
2022/05/23 09:01:09;;;;;;;2.15;1.65;;;;;;;;;;5056729;28;20209;-83
2022/05/23 09:03:41;;;;;;;1.85;1.63;;;;;;;;;;5056543;28;20279;-83
2022/05/23 09:06:13;;;;;;;1.75;1.65;;;;;;;;;;5056572;28;20206;-83
2022/05/23 09:08:50;;;;;;;1.75;1.65;;;;;;;;;;5055816;28;20280;-83
2022/05/23 09:11:28;;;;;;;1.35;1.25;;;;;;;;;;5050097;28;20255;-84
2022/05/23 09:13:56;;;;;;;1.10;1.10;;;;;;;;;;5056075;28;20228;-84
2022/05/23 09:16:24;;;;;;;1.50;1.40;;;;;;;;;;5056169;28;20235;-83
2022/05/23 09:18:57;;;;;;;1.52;1.42;;;;;;;;;;5055913;28;20198;-82
2022/05/23 09:22:12;;;;;;;1.80;1.70;;;;;;;;;;5056220;28;20212;-83
2022/05/23 09:24:14;;;;;;;1.88;1.77;;;;;;;;;;5055783;28;20241;-84
2022/05/23 09:26:41;;;;;;;1.70;1.60;;;;;;;;;;5055647;28;20209;-84
2022/05/23 09:29:09;;;;;;;1.63;1.52;;;;;;;;;;5055222;28;20221;-83
2022/05/23 09:31:47;;;;;;;1.92;1.83;;;;;;;;;;5056636;28;20209;-83
2022/05/23 09:34:30;;;;;;;1.60;1.50;;;;;;;;;;5050184;28;20226;-83
2022/05/23 09:36:58;;;;;;;1.60;1.50;;;;;;;;;;5056087;28;20194;-83
2022/05/23 09:39:29;;;;;;;1.92;1.83;;;;;;;;;;5056298;28;20205;-84
2022/05/23 09:47:49;;;;;;;2.00;1.70;;;;;;;;;;5055867;28;20205;-84
2022/05/23 09:50:32;;;;;;;3.28;1.98;;;;;;;;;;5056192;28;20261;-83
2022/05/23 09:53:01;;;;;;;2.55;1.67;;;;;;;;;;5055860;28;20213;-83
2022/05/23 09:55:33;;;;;;;2.40;1.67;;;;;;;;;;5056400;28;20221;-84
2022/05/23 09:58:03;;;;;;;1.73;1.63;;;;;;;;;;5056533;28;20220;-83
2022/05/23 10:00:35;;;;;;;1.48;1.48;;;;;;;;;;5050766;28;20658;-83
2022/05/23 10:03:06;;;;;;;1.70;1.60;;;;;;;;;;5056522;28;20210;-82
2022/05/23 10:05:36;;;;;;;2.67;2.17;;;;;;;;;;5056603;28;20234;-83
2022/05/23 10:08:15;;;;;;;2.05;1.95;;;;;;;;;;5056350;28;20214;-83
2022/05/23 10:10:56;;;;;;;1.55;1.48;;;;;;;;;;5056687;28;20701;-83
2022/05/23 10:13:28;;;;;;;2.53;1.90;;;;;;;;;;5055964;28;20202;-83
2022/05/23 10:15:58;;;;;;;2.40;1.52;;;;;;;;;;5056670;28;20217;-83
2022/05/23 10:18:29;;;;;;;1.70;1.50;;;;;;;;;;5056446;28;20205;-83
2022/05/23 10:20:57;;;;;;;1.92;1.60;;;;;;;;;;5056066;28;20289;-84
2022/05/23 10:23:29;;;;;;;1.70;1.60;;;;;;;;;;5056831;28;20205;-84
2022/05/23 10:26:04;;;;;;;2.20;2.10;;;;;;;;;;5056826;28;20217;-84
2022/05/23 10:28:40;;;;;;;2.00;1.90;;;;;;;;;;5056910;28;20263;-83
2022/05/23 10:31:10;;;;;;;3.63;1.95;;;;;;;;;;5056061;28;20235;-83
2022/05/23 10:33:39;;;;;;;2.47;2.28;;;;;;;;;;5056564;28;20225;-83
2022/05/23 10:36:12;;;;;;;1.75;1.65;;;;;;;;;;5057160;28;20213;-85
2022/05/23 10:44:28;;;;;;;2.35;2.15;;;;;;;;;;5056910;28;20252;-83
2022/05/23 10:47:07;;;;;;;1.73;1.63;;;;;;;;;;5058415;28;20217;-83
2022/05/23 10:49:39;;;;;;;1.80;1.70;;;;;;;;;;5058162;28;20229;-83
2022/05/23 10:52:12;;;;;;;1.60;1.50;;;;;;;;;;5056239;28;20720;-84
2022/05/23 10:54:49;;;;;;;2.17;1.90;;;;;;;;;;5051377;28;20316;-83
2022/05/23 10:57:31;;;;;;;2.30;2.10;;;;;;;;;;5049808;28;20205;-83
2022/05/23 11:00:06;;;;;;;2.42;2.22;;;;;;;;;;5053993;28;20205;-82
2022/05/23 11:02:48;;;;;;;1.90;1.75;;;;;;;;;;5056072;28;20632;-85
2022/05/23 11:05:22;;;;;;;2.58;1.88;;;;;;;;;;5055934;28;20221;-86
2022/05/23 11:08:07;;;;;;;2.03;1.92;;;;;;;;;;5050199;28;20635;-84
2022/05/23 11:10:41;;;;;;;2.38;1.90;;;;;;;;;;5056611;28;20837;-84
2022/05/23 11:13:26;;;;;;;2.97;2.00;;;;;;;;;;5056058;28;20217;-84
2022/05/23 11:16:11;;;;;;;2.40;1.80;;;;;;;;;;5055713;28;20213;-84
2022/05/23 11:18:57;;;;;;;3.13;2.20;;;;;;;;;;5055996;28;20251;-83
2022/05/23 11:21:30;;;;;;;2.20;1.88;;;;;;;;;;5055467;28;20202;-83
2022/05/23 11:24:03;;;;;;;1.90;1.80;;;;;;;;;;5055418;28;20229;-83
2022/05/23 11:26:34;;;;;;;2.22;1.98;;;;;;;;;;5055623;28;20212;-83
2022/05/23 11:34:44;;;;;;;2.40;1.83;;;;;;;;;;5055422;28;20233;-85
2022/05/23 11:39:59;;;;;;;2.85;2.22;;;;;;;;;;5053565;28;20265;-84
2022/05/23 11:42:31;;;;;;;2.38;2.17;;;;;;;;;;5054069;28;20323;-85
2022/05/23 11:48:03;;;;;;;2.13;2.03;;;;;;;;;;5054671;28;20212;-84
2022/05/23 11:50:33;;;;;;;5.32;2.80;;;;;;;;;;5055549;28;20628;-84
2022/05/23 11:53:12;;;;;;;2.03;1.85;;;;;;;;;;5058165;28;20212;-83
2022/05/23 11:56:06;;;;;;;1.65;1.55;;;;;;;;;;5059226;28;20236;-83
2022/05/23 11:58:49;;;;;;;1.90;1.48;;;;;;;;;;5057685;28;20300;-82
2022/05/23 12:01:26;;;;;;;1.65;1.55;;;;;;;;;;5059211;28;20890;-84
2022/05/23 12:04:18;;;;;;;2.13;1.92;;;;;;;;;;5058244;28;20224;-84
2022/05/23 12:06:46;;;;;;;2.50;2.00;;;;;;;;;;5055389;28;20232;-85
2022/05/23 12:09:33;;;;;;;2.70;2.25;;;;;;;;;;5058075;28;20206;-84
2022/05/23 12:12:47;;;;;;;2.20;1.90;;;;;;;;;;5057912;28;20231;-84
2022/05/23 12:15:49;;;;;;;2.00;1.60;;;;;;;;;;5042631;28;20225;-83
2022/05/23 12:18:39;;;;;;;2.35;1.45;;;;;;;;;;5057911;28;20273;-83
2022/05/23 12:21:25;;;;;;;1.58;1.48;;;;;;;;;;5058031;28;20194;-82
2022/05/23 12:24:18;;;;;;;1.92;1.83;;;;;;;;;;5056838;28;20698;-83
2022/05/23 12:26:50;;;;;;;1.58;1.48;;;;;;;;;;5058668;28;20205;-84
2022/05/23 12:29:34;;;;;;;1.80;1.70;;;;;;;;;;5058003;28;20693;-83
2022/05/23 12:32:25;;;;;;;2.65;1.70;;;;;;;;;;5057395;28;20209;-84
2022/05/23 12:34:59;;;;;;;2.00;1.90;;;;;;;;;;5053213;28;20928;-83
2022/05/23 12:37:30;;;;;;;1.60;1.50;;;;;;;;;;5038173;28;20209;-84
2022/05/23 12:40:12;;;;;;;3.25;1.80;;;;;;;;;;5045524;28;20209;-84
2022/05/23 12:43:00;;;;;;;1.48;1.38;;;;;;;;;;5057434;28;20209;-84
2022/05/23 12:45:54;;;;;;;3.60;2.42;;;;;;;;;;5058085;28;20264;-84
2022/05/23 12:48:44;;;;;;;1.38;1.27;;;;;;;;;;5058019;28;20201;-84
2022/05/23 12:51:39;;;;;;;2.00;1.77;;;;;;;;;;5058387;28;20236;-83
2022/05/23 12:54:21;;;;;;;2.45;1.70;;;;;;;;;;5058318;28;20267;-84
2022/05/23 12:57:07;;;;;;;3.03;1.55;;;;;;;;;;5058223;28;20205;-84
2022/05/23 12:59:53;;;;;;;1.73;1.63;;;;;;;;;;5057490;28;20233;-83
2022/05/23 13:02:27;;;;;;;2.25;2.05;;;;;;;;;;5057492;28;20550;-84
2022/05/23 13:04:59;;;;;;;1.42;1.33;;;;;;;;;;5056821;28;20573;-84
2022/05/23 13:07:34;;;;;;;2.00;1.80;;;;;;;;;;5058071;28;20197;-84
2022/05/23 13:10:06;;;;;;;1.80;1.70;;;;;;;;;;5057548;28;20186;-83
2022/05/23 13:12:39;;;;;;;1.77;1.67;;;;;;;;;;5057109;28;20300;-84
2022/05/23 13:15:08;;;;;;;4.03;1.60;;;;;;;;;;5057495;28;20230;-85
2022/05/23 13:17:40;;;;;;;2.97;1.67;;;;;;;;;;5058643;28;20213;-85
2022/05/23 13:23:14;;;;;;;2.65;1.83;;;;;;;;;;5057624;28;20685;-83
2022/05/23 13:25:42;;;;;;;1.65;1.52;;;;;;;;;;5057531;28;20201;-84
2022/05/23 13:28:12;;;;;;;1.42;1.33;;;;;;;;;;5058116;28;20201;-84
2022/05/23 13:30:44;;;;;;;1.48;1.20;;;;;;;;;;5057164;28;20232;-85
2022/05/23 13:33:15;;;;;;;2.63;1.63;;;;;;;;;;5038180;28;20690;-85
2022/05/23 13:35:44;;;;;;;1.38;1.30;;;;;;;;;;5053435;28;20224;-83
2022/05/23 13:38:26;;;;;;;2.50;1.77;;;;;;;;;;5058909;28;20213;-85
2022/05/23 13:40:56;;;;;;;1.65;1.55;;;;;;;;;;5058823;28;20194;-84
2022/05/23 13:43:27;;;;;;;1.75;1.65;;;;;;;;;;5057993;28;20206;-85
2022/05/23 13:46:02;;;;;;;3.17;2.05;;;;;;;;;;5058777;28;20220;-85
2022/05/23 13:48:39;;;;;;;2.20;1.75;;;;;;;;;;5059969;28;20570;-85
2022/05/23 13:51:10;;;;;;;2.22;2.05;;;;;;;;;;5059233;28;20202;-85
2022/05/23 13:53:45;;;;;;;1.90;1.73;;;;;;;;;;5057750;28;20356;-85
2022/05/23 13:56:13;;;;;;;2.75;2.53;;;;;;;;;;5058550;28;20592;-84
2022/05/23 13:58:45;;;;;;;1.88;1.67;;;;;;;;;;5058127;28;20206;-85
2022/05/23 14:01:22;;;;;;;1.90;1.80;;;;;;;;;;5058892;28;20212;-85
2022/05/23 14:03:57;;;;;;;2.78;2.25;;;;;;;;;;5058776;28;20229;-86
2022/05/23 14:06:29;;;;;;;2.65;1.83;;;;;;;;;;5059140;28;20685;-85
2022/05/23 14:09:01;;;;;;;2.42;2.22;;;;;;;;;;5058459;28;20220;-85
2022/05/23 14:11:33;;;;;;;2.67;1.90;;;;;;;;;;5058825;28;20228;-84
2022/05/23 14:14:14;;;;;;;3.63;1.92;;;;;;;;;;5058842;28;20637;-85
2022/05/23 14:16:42;;;;;;;3.33;3.03;;;;;;;;;;5058062;28;20208;-84
2022/05/23 14:19:22;;;;;;;2.00;1.63;;;;;;;;;;5057877;28;20209;-85
2022/05/23 14:22:02;;;;;;;1.73;1.63;;;;;;;;;;5053527;28;20197;-85
2022/05/23 14:24:32;;;;;;;2.08;1.98;;;;;;;;;;5057806;28;20590;-86
2022/05/23 14:27:20;;;;;;;1.80;1.70;;;;;;;;;;5057380;28;20712;-86
2022/05/23 14:29:49;;;;;;;2.20;1.95;;;;;;;;;;5037363;28;20191;-86
2022/05/23 14:32:24;;;;;;;2.05;1.95;;;;;;;;;;5048449;28;20228;-86
2022/05/23 14:34:51;;;;;;;2.30;2.10;;;;;;;;;;5057235;28;20259;-84
2022/05/23 14:37:22;;;;;;;2.40;2.00;;;;;;;;;;5056904;28;20202;-87
2022/05/23 14:39:52;;;;;;;1.65;1.50;;;;;;;;;;5057167;28;20205;-86
2022/05/23 14:42:27;;;;;;;1.80;1.70;;;;;;;;;;5055871;28;20214;-87
2022/05/23 14:45:12;;;;;;;2.22;2.03;;;;;;;;;;5055832;28;20263;-86
2022/05/23 14:47:52;;;;;;;1.90;1.80;;;;;;;;;;5055522;28;20279;-87
2022/05/23 14:50:22;;;;;;;1.70;1.60;;;;;;;;;;5050046;28;20579;-85
2022/05/23 14:55:18;;;;;;;1.83;1.73;;;;;;;;;;5049235;28;20218;-86
2022/05/23 14:55:50;;;;;;;2.15;1.55;;;;;;;;;;5055418;28;20286;-86
2022/05/23 15:01:05;;;;;;;1.88;1.70;;;;;;;;;;5055748;28;20212;-86
2022/05/23 15:03:40;;;;;;;2.95;2.10;;;;;;;;;;5055253;28;20197;-85
2022/05/23 15:06:08;;;;;;;2.22;1.85;;;;;;;;;;5056615;28;20211;-86
2022/05/23 15:08:36;;;;;;;2.20;2.00;;;;;;;;;;5056020;28;20205;-85
2022/05/23 15:11:05;;;;;;;2.10;1.90;;;;;;;;;;5055445;28;20205;-85
2022/05/23 15:13:35;;;;;;;2.10;1.90;;;;;;;;;;5053841;28;20225;-84
2022/05/23 15:16:04;;;;;;;2.35;2.15;;;;;;;;;;5056082;28;20205;-86
2022/05/23 15:18:33;;;;;;;1.70;1.60;;;;;;;;;;5056169;28;20681;-85
2022/05/23 15:21:01;;;;;;;3.78;2.35;;;;;;;;;;5056097;28;20202;-85
2022/05/23 15:23:29;;;;;;;1.85;1.75;;;;;;;;;;5056231;28;20231;-86
2022/05/23 15:25:58;;;;;;;3.10;2.67;;;;;;;;;;5055356;28;20202;-86
2022/05/23 15:28:26;;;;;;;2.20;1.92;;;;;;;;;;5055761;28;20685;-86
2022/05/23 15:30:53;;;;;;;2.05;1.95;;;;;;;;;;5056056;28;20213;-87
2022/05/23 15:33:21;;;;;;;2.67;2.35;;;;;;;;;;5054589;28;20229;-85
2022/05/23 15:35:48;;;;;;;1.92;1.80;;;;;;;;;;5054913;28;20319;-86
2022/05/23 15:38:15;;;;;;;2.13;1.85;;;;;;;;;;5055390;28;20630;-87
2022/05/23 15:40:44;;;;;;;2.22;2.03;;;;;;;;;;5055657;28;20220;-86
2022/05/23 15:43:12;;;;;;;2.10;1.90;;;;;;;;;;5044475;28;20249;-86
2022/05/23 15:45:46;;;;;;;2.20;2.10;;;;;;;;;;5051717;28;20241;-85
2022/05/23 15:48:14;;;;;;;1.92;1.83;;;;;;;;;;5054708;28;20248;-87
2022/05/23 15:50:43;;;;;;;2.83;2.63;;;;;;;;;;5055648;28;20205;-85
2022/05/23 15:53:10;;;;;;;2.50;2.30;;;;;;;;;;5055239;28;20585;-86
2022/05/23 15:55:41;;;;;;;2.50;2.00;;;;;;;;;;5054706;28;20702;-86
2022/05/23 15:58:09;;;;;;;1.88;1.70;;;;;;;;;;5055153;28;20209;-86
2022/05/23 16:00:36;;;;;;;2.20;2.00;;;;;;;;;;5054825;28;20202;-86
2022/05/23 16:03:08;;;;;;;1.80;1.70;;;;;;;;;;5054186;28;20240;-85
2022/05/23 16:05:37;;;;;;;2.35;2.05;;;;;;;;;;5055480;28;20316;-85
2022/05/23 16:08:04;;;;;;;2.25;1.65;;;;;;;;;;5055399;28;20577;-84
2022/05/23 16:10:33;;;;;;;2.30;2.10;;;;;;;;;;5056050;28;20301;-85
2022/05/23 16:13:06;;;;;;;2.30;2.00;;;;;;;;;;5054382;28;20286;-84
2022/05/23 16:15:33;;;;;;;2.05;1.85;;;;;;;;;;5055041;28;20253;-84